Halle Kroellwitz, Germany

3:19 AM CET on November 27, 2014 (GMT +0100)
ISACHSEN100 | Change Station
CLOSE
Current Station
Personal Weather Station
Location: Halle, SACHSEN-ANHALT
Elevation: 305 ft
Nearby Weather Stations

Elev 305 ft 51.51 °N, 11.89 °E | Updated 4 minutes ago

Clear
Clear
31.0 °F
Feels Like 31 °F
N
0.0
Wind Variable Wind from East

Today
High -- | Low -- °F
--% Chance of Precip.
Yesterday
High -- | Low -- °F
Precip. -- in
7:49 AM 4:09 PM
Waxing Crescent, 24% visible
Pressure 30.01 in
Visibility -9999.0 miles
Clouds
Windchill 31 °F
Dew Point 30 °F
Humidity 94%
Rainfall 0.00 in
Snow Depth Not available.
UV Not available.
Pollen Not available.
Air Quality Not available.
Flu Activity Not available.
METAR EDDP 270150Z 10008KT CAVOK M01/M01 Q1016 NOSIG

More Conditions Fewer Conditions

Pressure 30.01 in
Visibility -9999.0 miles
Clouds
Windchill 31 °F
Dew Point 30 °F
Humidity 94%
Rainfall 0.00 in
Snow Depth Not available.
UV Not available.
Pollen Not available.
Air Quality Not available.
Flu Activity Not available.
METAR EDDP 270150Z 10008KT CAVOK M01/M01 Q1016 NOSIG

More Conditions Fewer Conditions

10-Day Weather Forecast

Almanac

Astronomy

Nov. 27, 2014 Rise Set
Actual Time
Civil Twilight
Nautical Twilight
Astronomical Twilight
Moon
Length of Visible Light
Length of Day
Tomorrow will be .
, % of the Moon is Illuminated

Today's Extremes

Country Highs Country Lows

Community

WunderPhotos

Upload Photos

1,773,943 photos uploaded!

WunderBlogs® & News

Nearby

Air Quality

  Air Quality AQ Index Pollutant
Not available.

Snow Depth

Station Depth Elevation

Earthquake Activity

City Distance Mag. Time & Date
Minimum magnitude displayed is 2.5.

Coastal Water Temperatures

Place Temperature

Nearby Weather Stations